TAF Text Data
IDs:
Format:
Raw Decoded Include METAR

Data at: 2156 UTC 08 Aug 2020

KCSV 081726Z 0818/0918 VRB03KT P6SM SKC
  FM090900 00000KT 4SM BR SKC
  FM091200 VRB03KT P6SM FEW250